Terminal Aerodrome Forecast
Issued by NWS Tulsa, OK

Home | Current Version | Previous Version | Text Only | Print | Product List | Glossary On
Versions: 1 2 3 4 5 6 7 8 9 10 11 12 13 14 15 16 17 18 19 20 21 22
246
FTUS44 KTSA 160832 AAB
TAFTUL
TAF AMD
KTUL 160832Z 1609/1706 12015G25KT 4SM RA BR OVC006
     FM161600 19012G18KT 5SM BR OVC005
     FM161900 21014G20KT P6SM BKN012
     FM162300 26010KT P6SM OVC025=

USA.gov is the U.S. government's official web portal to all federal, state and local government web resources and services.